aviador You're here:

SCAS Decoded Metar

in
Report Time2018-06-21 21:00:00
UTC Time2018-06-21 21:58:14
Flight Rules mvfr MVFR
Wind240° at 06 kt
W.Rank240° ranks 2
Current wind is below 240° avg. (9.0)
Visibility7000 m
Phenomena:Light Rain
Clouds:Scattered 020 Hf
Overcast 030 Hf
Expected CloudBase > 400 ft AGL from Temp-Dew spread
Ceiling3,000 ft
Temp05°C
Dew Point04°C (93% RH)
AAT1.5°C
QNH1010 hPa
Raw Report
METAR SCAS 212100Z 24006KT 7000 -RA SCT020 OVC030 05/04 Q1010=

Extra information for SCAS:More info

Social comments